Time;durP1;ratioP1;P1;durP2;ratioP2;P2;SDS_P1;SDS_P2;PMS_P1;PMS_P2;Temp;Humidity;BMP_temperature;BMP_pressure;BME280_temperature;BME280_humidity;BME280_pressure;Samples;Min_cycle;Max_cycle;Signal;HPM_P1;HPM_P2
2022/01/31 00:00:10;;;;;;;23.02;7.35;;;4.10;99.90;;;;;;5055049;28;20037;-71
2022/01/31 00:02:37;;;;;;;16.52;6.25;;;4.10;99.90;;;;;;5050044;28;20029;-72
2022/01/31 00:05:04;;;;;;;28.90;6.50;;;4.10;99.90;;;;;;5035683;28;20090;-72
2022/01/31 00:07:30;;;;;;;23.52;5.97;;;4.00;99.90;;;;;;5048228;28;20025;-72
2022/01/31 00:09:56;;;;;;;22.38;6.63;;;4.20;99.90;;;;;;5034846;28;20052;-71
2022/01/31 00:12:24;;;;;;;19.15;5.72;;;4.30;99.90;;;;;;5034624;28;20029;-71
2022/01/31 00:14:51;;;;;;;24.42;7.10;;;4.20;99.90;;;;;;5042730;28;20029;-71
2022/01/31 00:17:17;;;;;;;16.98;5.75;;;4.00;99.90;;;;;;5047336;28;20433;-71
2022/01/31 00:19:44;;;;;;;20.17;5.40;;;4.10;99.90;;;;;;5054664;28;20029;-71
2022/01/31 00:22:11;;;;;;;22.42;5.63;;;4.10;99.90;;;;;;5048143;28;20049;-72
2022/01/31 00:24:38;;;;;;;18.50;5.38;;;3.90;99.90;;;;;;5036491;28;20072;-72
2022/01/31 00:27:05;;;;;;;21.60;6.03;;;3.80;99.90;;;;;;5042198;28;20387;-70
2022/01/31 00:29:31;;;;;;;24.20;5.47;;;3.80;99.90;;;;;;5035352;28;20025;-71
2022/01/31 00:31:57;;;;;;;22.15;5.97;;;4.00;99.90;;;;;;5036548;28;20035;-70
2022/01/31 00:34:23;;;;;;;18.33;4.85;;;3.90;99.90;;;;;;5037185;28;20021;-70
2022/01/31 00:36:48;;;;;;;21.65;5.82;;;3.80;99.90;;;;;;5038113;28;20101;-69
2022/01/31 00:39:15;;;;;;;16.80;6.50;;;3.70;99.90;;;;;;5038264;28;20032;-70
2022/01/31 00:41:41;;;;;;;16.35;7.07;;;3.70;99.90;;;;;;5038056;28;20069;-71
2022/01/31 00:47:16;;;;;;;15.02;5.72;;;3.40;99.90;;;;;;5039002;28;20026;-70
2022/01/31 00:49:38;;;;;;;16.90;5.72;;;3.60;99.90;;;;;;5037756;28;20030;-71
2022/01/31 00:52:04;;;;;;;15.00;5.68;;;3.50;99.90;;;;;;5037038;28;20030;-70
2022/01/31 00:54:30;;;;;;;15.25;5.13;;;3.50;99.90;;;;;;5035310;28;20053;-71
2022/01/31 00:56:56;;;;;;;17.95;5.50;;;3.50;99.90;;;;;;5037109;28;20030;-70
2022/01/31 00:59:22;;;;;;;17.77;5.05;;;3.50;99.90;;;;;;5034159;28;20040;-71
2022/01/31 01:01:48;;;;;;;18.45;3.75;;;3.60;99.90;;;;;;5035575;28;20060;-71
2022/01/31 01:04:16;;;;;;;10.20;3.63;;;3.40;99.90;;;;;;5035600;28;20382;-73
2022/01/31 01:06:42;;;;;;;15.90;4.25;;;3.20;99.90;;;;;;5036502;28;20379;-71
2022/01/31 01:09:07;;;;;;;11.40;4.18;;;3.30;99.90;;;;;;5035975;28;20037;-70
2022/01/31 01:11:34;;;;;;;17.90;4.28;;;3.40;99.90;;;;;;5034941;28;20381;-69
2022/01/31 01:13:59;;;;;;;12.75;4.80;;;3.40;99.90;;;;;;5033886;28;20121;-71
2022/01/31 01:16:25;;;;;;;14.65;5.00;;;3.40;99.90;;;;;;5032964;28;20075;-71
2022/01/31 01:18:51;;;;;;;14.38;3.50;;;3.40;99.90;;;;;;5034417;28;20021;-70
2022/01/31 01:21:17;;;;;;;14.32;3.60;;;3.40;99.90;;;;;;5033736;28;20184;-71
2022/01/31 01:23:42;;;;;;;18.88;4.53;;;3.30;99.90;;;;;;5033484;28;20067;-69
2022/01/31 01:26:08;;;;;;;20.15;4.07;;;3.30;99.90;;;;;;5035313;28;20126;-70
2022/01/31 01:28:34;;;;;;;12.27;3.80;;;3.30;99.90;;;;;;5035367;28;20026;-71
2022/01/31 01:31:00;;;;;;;15.20;3.80;;;3.30;99.90;;;;;;5035452;28;20029;-70
2022/01/31 01:33:27;;;;;;;13.90;4.25;;;3.50;99.90;;;;;;5017618;28;20025;-71
2022/01/31 01:35:54;;;;;;;18.02;5.20;;;3.20;99.90;;;;;;5036743;28;20025;-71
2022/01/31 01:38:27;;;;;;;16.00;3.35;;;3.30;99.90;;;;;;5037177;28;20021;-71
2022/01/31 01:40:54;;;;;;;15.73;4.45;;;3.30;99.90;;;;;;5036055;28;20422;-71
2022/01/31 01:43:20;;;;;;;11.55;5.43;;;3.40;99.90;;;;;;5034144;28;20025;-72
2022/01/31 01:45:50;;;;;;;15.13;4.47;;;3.30;99.90;;;;;;5033177;28;20383;-71
2022/01/31 01:48:16;;;;;;;17.92;4.45;;;3.30;99.90;;;;;;5034366;28;20049;-71
2022/01/31 01:50:42;;;;;;;10.63;3.58;;;3.40;99.90;;;;;;5034065;28;20105;-70
2022/01/31 01:53:09;;;;;;;12.98;4.75;;;3.40;99.90;;;;;;5033943;28;20534;-71
2022/01/31 01:55:35;;;;;;;20.67;4.35;;;3.40;99.90;;;;;;5033335;28;20030;-71
2022/01/31 01:58:03;;;;;;;9.73;4.13;;;3.40;99.90;;;;;;5035903;28;20060;-71
2022/01/31 02:00:49;;;;;;;12.05;4.15;;;3.30;99.90;;;;;;5036596;28;20103;-71
2022/01/31 02:03:15;;;;;;;17.63;5.35;;;3.30;99.90;;;;;;5038647;28;20036;-70
2022/01/31 02:05:41;;;;;;;12.50;4.03;;;3.40;99.90;;;;;;5038047;28;20026;-70
2022/01/31 02:08:08;;;;;;;11.05;3.58;;;3.40;99.90;;;;;;5038281;28;20030;-71
2022/01/31 02:10:34;;;;;;;16.35;4.80;;;3.40;99.90;;;;;;5037976;28;20033;-71
2022/01/31 02:13:05;;;;;;;7.95;3.63;;;3.50;99.90;;;;;;5037904;28;20034;-71
2022/01/31 02:15:31;;;;;;;11.75;4.50;;;3.70;99.90;;;;;;5034545;28;20025;-71
2022/01/31 02:17:56;;;;;;;14.38;3.83;;;3.50;99.90;;;;;;5034016;28;20029;-69
2022/01/31 02:20:22;;;;;;;11.23;4.60;;;3.50;99.90;;;;;;5033208;28;20379;-71
2022/01/31 02:22:49;;;;;;;10.02;4.70;;;3.70;99.90;;;;;;5033568;28;20195;-71
2022/01/31 02:25:15;;;;;;;16.17;4.75;;;3.80;99.90;;;;;;5033224;28;20030;-71
2022/01/31 02:27:42;;;;;;;9.57;4.18;;;3.80;99.90;;;;;;5033893;28;20406;-72
2022/01/31 02:30:10;;;;;;;10.90;3.97;;;3.90;99.90;;;;;;5034403;28;20083;-71
2022/01/31 02:32:36;;;;;;;11.05;4.85;;;3.90;99.90;;;;;;5032902;28;20055;-71
2022/01/31 02:35:02;;;;;;;12.93;4.65;;;4.00;99.90;;;;;;5033246;28;20456;-71
2022/01/31 02:37:28;;;;;;;15.93;3.58;;;4.10;99.90;;;;;;5032545;28;20036;-71
2022/01/31 02:39:53;;;;;;;17.40;4.55;;;4.20;99.90;;;;;;5032951;28;20025;-71
2022/01/31 02:42:19;;;;;;;12.50;4.03;;;4.20;99.90;;;;;;5034030;28;20034;-73
2022/01/31 02:44:46;;;;;;;12.23;4.00;;;4.20;99.90;;;;;;5037754;28;20026;-71
2022/01/31 02:47:18;;;;;;;12.15;4.38;;;4.20;99.90;;;;;;5037402;28;20099;-72
2022/01/31 02:49:55;;;;;;;17.88;4.50;;;4.20;99.90;;;;;;5036395;28;20530;-71
2022/01/31 02:52:22;;;;;;;14.88;4.85;;;4.20;99.90;;;;;;5035160;28;20037;-72
2022/01/31 02:54:48;;;;;;;12.02;4.40;;;4.10;99.90;;;;;;5037423;28;20025;-71
2022/01/31 02:57:13;;;;;;;12.90;4.10;;;4.10;99.90;;;;;;5037862;28;20033;-71
2022/01/31 02:59:39;;;;;;;12.77;4.13;;;4.20;99.90;;;;;;5036725;28;20026;-71
2022/01/31 03:02:06;;;;;;;14.32;5.00;;;4.30;99.90;;;;;;5037168;28;20033;-71
2022/01/31 03:04:31;;;;;;;15.30;4.32;;;4.30;99.90;;;;;;5036431;28;20133;-71
2022/01/31 03:06:57;;;;;;;12.23;4.63;;;4.30;99.90;;;;;;5035570;28;20195;-71
2022/01/31 03:09:23;;;;;;;12.02;3.85;;;4.40;99.90;;;;;;5036194;28;20032;-73
2022/01/31 03:11:49;;;;;;;17.58;6.15;;;4.30;99.90;;;;;;5037008;28;20032;-72
2022/01/31 03:14:16;;;;;;;11.70;3.67;;;4.30;99.90;;;;;;5035938;28;20071;-71
2022/01/31 03:16:46;;;;;;;10.85;4.63;;;4.30;99.90;;;;;;5035269;28;20227;-71
2022/01/31 03:19:12;;;;;;;16.13;4.07;;;4.30;99.90;;;;;;5036852;28;20505;-71
2022/01/31 03:21:38;;;;;;;16.67;3.85;;;4.20;99.90;;;;;;5034425;28;20144;-72
2022/01/31 03:24:05;;;;;;;17.45;4.35;;;4.00;99.90;;;;;;5037803;28;20432;-71
2022/01/31 03:26:31;;;;;;;8.25;3.75;;;4.00;99.90;;;;;;5038149;28;20021;-69
2022/01/31 03:28:57;;;;;;;12.82;3.70;;;4.00;99.90;;;;;;5038758;28;20029;-71
2022/01/31 03:31:23;;;;;;;14.85;3.67;;;4.00;99.90;;;;;;5038683;28;20095;-71
2022/01/31 03:33:51;;;;;;;16.00;4.18;;;4.00;99.90;;;;;;5038299;28;20087;-69
2022/01/31 03:36:16;;;;;;;9.93;3.90;;;4.00;99.90;;;;;;5036564;28;20029;-71
2022/01/31 03:38:42;;;;;;;11.15;3.88;;;4.10;99.90;;;;;;5039619;28;20768;-70
2022/01/31 03:41:09;;;;;;;14.60;4.20;;;4.10;99.90;;;;;;5039714;28;20395;-71
2022/01/31 03:43:35;;;;;;;8.40;3.45;;;4.10;99.90;;;;;;5038568;28;20033;-71
2022/01/31 03:46:00;;;;;;;9.68;3.85;;;4.10;99.90;;;;;;5039962;28;20036;-70
2022/01/31 03:48:28;;;;;;;11.15;4.60;;;3.90;99.90;;;;;;5037129;28;20486;-70
2022/01/31 03:50:55;;;;;;;14.25;3.72;;;3.90;99.90;;;;;;5039224;28;20033;-70
2022/01/31 03:53:20;;;;;;;15.02;3.95;;;3.90;99.90;;;;;;5038574;28;20021;-71
2022/01/31 03:55:46;;;;;;;14.27;4.13;;;4.00;99.90;;;;;;5037924;28;20052;-71
2022/01/31 03:58:12;;;;;;;9.73;3.85;;;4.10;99.90;;;;;;5037758;28;20026;-71
2022/01/31 04:00:37;;;;;;;15.02;4.13;;;4.10;99.90;;;;;;5038522;28;20025;-70
2022/01/31 04:03:04;;;;;;;9.05;3.35;;;4.00;99.90;;;;;;5038772;28;20092;-71
2022/01/31 04:05:31;;;;;;;17.55;3.55;;;4.20;99.90;;;;;;5037595;28;20021;-71
2022/01/31 04:07:57;;;;;;;10.57;3.03;;;4.10;99.90;;;;;;5038411;28;20029;-70
2022/01/31 04:10:25;;;;;;;12.73;3.78;;;4.10;99.90;;;;;;5037011;28;20048;-71
2022/01/31 04:12:51;;;;;;;9.52;3.13;;;4.00;99.90;;;;;;5034704;28;20044;-70
2022/01/31 04:15:17;;;;;;;15.27;4.80;;;4.20;99.90;;;;;;5036222;28;20026;-71
2022/01/31 04:17:43;;;;;;;16.25;5.72;;;4.20;99.90;;;;;;5035838;28;20356;-70
2022/01/31 04:20:09;;;;;;;12.13;4.05;;;4.20;99.90;;;;;;5037102;28;20036;-71
2022/01/31 04:22:42;;;;;;;11.38;3.88;;;4.20;99.90;;;;;;5033661;28;20388;-71
2022/01/31 04:25:17;;;;;;;9.40;3.92;;;4.20;99.90;;;;;;5018696;28;20455;-70
2022/01/31 04:27:50;;;;;;;10.10;2.70;;;4.20;99.90;;;;;;5034868;28;20026;-69
2022/01/31 04:30:16;;;;;;;11.75;3.10;;;4.20;99.90;;;;;;5034960;28;20029;-70
2022/01/31 04:32:42;;;;;;;11.13;3.65;;;4.30;99.90;;;;;;5035304;28;20036;-70
2022/01/31 04:35:08;;;;;;;17.13;4.10;;;4.30;99.90;;;;;;5036278;28;20029;-70
2022/01/31 04:37:33;;;;;;;14.50;3.80;;;4.30;99.90;;;;;;5035111;28;20025;-71
2022/01/31 04:39:59;;;;;;;13.13;3.72;;;4.20;99.90;;;;;;5034694;28;20026;-70
2022/01/31 04:42:25;;;;;;;11.23;3.35;;;4.30;99.90;;;;;;5035442;28;20033;-71
2022/01/31 04:44:53;;;;;;;14.05;3.72;;;4.30;99.90;;;;;;5035689;28;20514;-71
2022/01/31 04:47:19;;;;;;;13.90;4.88;;;4.30;99.90;;;;;;5035751;28;20520;-71
2022/01/31 04:49:45;;;;;;;11.20;3.33;;;4.30;99.90;;;;;;5033914;28;20116;-71
2022/01/31 04:52:10;;;;;;;15.75;3.85;;;4.40;99.90;;;;;;5035745;28;20495;-70
2022/01/31 04:54:36;;;;;;;9.88;3.58;;;4.30;99.90;;;;;;5034449;28;20026;-71
2022/01/31 04:57:02;;;;;;;12.30;3.70;;;4.40;99.90;;;;;;5035727;28;20018;-70
2022/01/31 04:59:28;;;;;;;15.65;4.22;;;4.30;99.90;;;;;;5034834;28;20025;-73
2022/01/31 05:01:54;;;;;;;12.80;4.25;;;4.30;99.90;;;;;;5035293;28;20033;-71
2022/01/31 05:04:19;;;;;;;17.65;4.57;;;4.30;99.90;;;;;;5036750;28;20021;-70
2022/01/31 05:06:46;;;;;;;24.50;4.43;;;4.10;99.90;;;;;;5033769;28;20421;-70
2022/01/31 05:09:12;;;;;;;13.15;4.00;;;4.10;99.90;;;;;;5036451;28;20387;-69
2022/01/31 05:11:39;;;;;;;10.75;3.92;;;4.10;99.90;;;;;;5035199;28;20187;-69
2022/01/31 05:14:04;;;;;;;13.23;4.50;;;4.10;99.90;;;;;;5036139;28;20033;-70
2022/01/31 05:16:30;;;;;;;14.60;5.22;;;4.00;99.90;;;;;;5034654;28;20434;-71
2022/01/31 05:18:56;;;;;;;14.45;4.65;;;4.00;99.90;;;;;;5036267;28;20494;-71
2022/01/31 05:21:21;;;;;;;12.70;4.30;;;4.00;99.90;;;;;;5035781;28;20148;-71
2022/01/31 05:23:49;;;;;;;10.15;4.60;;;4.00;99.90;;;;;;5034059;28;20053;-70
2022/01/31 05:26:15;;;;;;;22.67;6.00;;;3.90;99.90;;;;;;5034574;28;20031;-70
2022/01/31 05:28:41;;;;;;;17.35;5.55;;;3.90;99.90;;;;;;5033687;28;20030;-70
2022/01/31 05:31:07;;;;;;;17.48;6.10;;;3.90;99.90;;;;;;5034449;28;20056;-71
2022/01/31 05:33:33;;;;;;;16.05;5.47;;;3.80;99.90;;;;;;5034733;28;20463;-54
2022/01/31 05:35:59;;;;;;;16.42;5.13;;;3.80;99.90;;;;;;5034377;28;20052;-70
2022/01/31 05:38:25;;;;;;;13.07;4.88;;;5.60;99.90;;;;;;5034353;28;20395;-71
2022/01/31 05:40:51;;;;;;;17.65;4.85;;;4.80;99.90;;;;;;5032200;28;20478;-70
2022/01/31 05:43:19;;;;;;;14.82;5.32;;;4.30;99.90;;;;;;5034095;28;20032;-69
2022/01/31 05:45:45;;;;;;;9.55;3.97;;;4.10;99.90;;;;;;5033234;28;20022;-70
2022/01/31 05:48:11;;;;;;;12.05;4.15;;;4.00;99.90;;;;;;5034925;28;20026;-70
2022/01/31 05:50:36;;;;;;;11.80;3.85;;;3.90;99.90;;;;;;5035034;28;20030;-71
2022/01/31 05:53:02;;;;;;;16.70;5.60;;;3.90;99.90;;;;;;5037540;28;20025;-70
2022/01/31 05:55:28;;;;;;;12.80;5.55;;;3.90;99.90;;;;;;5033920;28;20036;-70
2022/01/31 05:57:53;;;;;;;18.75;5.45;;;3.90;99.90;;;;;;5034096;28;20032;-71
2022/01/31 06:00:19;;;;;;;14.23;4.82;;;3.90;99.90;;;;;;5032714;28;20026;-70
2022/01/31 06:02:47;;;;;;;10.75;4.20;;;3.90;99.90;;;;;;5034143;28;20041;-70
2022/01/31 06:05:13;;;;;;;13.43;4.72;;;3.80;99.90;;;;;;5035077;28;20028;-70
2022/01/31 06:07:40;;;;;;;10.23;5.00;;;3.80;99.90;;;;;;5034028;28;20387;-71
2022/01/31 06:10:06;;;;;;;12.90;4.70;;;3.80;99.90;;;;;;5034411;28;20041;-70
2022/01/31 06:12:32;;;;;;;10.95;4.47;;;3.70;99.90;;;;;;5034617;28;20387;-71
2022/01/31 06:14:57;;;;;;;15.55;4.90;;;3.80;99.90;;;;;;5035221;28;20423;-70
2022/01/31 06:17:23;;;;;;;10.88;4.43;;;3.90;99.90;;;;;;5032584;28;20115;-71
2022/01/31 06:19:49;;;;;;;24.58;6.82;;;3.90;99.90;;;;;;5033698;28;20219;-71
2022/01/31 06:22:14;;;;;;;10.77;3.88;;;3.80;99.90;;;;;;5033620;28;20045;-70
2022/01/31 06:24:40;;;;;;;11.15;4.75;;;3.80;99.90;;;;;;5035742;28;20056;-71
2022/01/31 06:27:06;;;;;;;11.50;3.90;;;3.90;99.90;;;;;;5038100;28;20026;-71
2022/01/31 06:29:31;;;;;;;10.95;4.30;;;3.90;99.90;;;;;;5039949;28;20028;-70
2022/01/31 06:31:57;;;;;;;8.60;3.40;;;4.00;99.90;;;;;;5036337;28;20037;-72
2022/01/31 06:34:23;;;;;;;12.23;5.75;;;4.00;99.90;;;;;;5038436;28;20033;-71
2022/01/31 06:36:48;;;;;;;9.23;3.63;;;4.00;99.90;;;;;;5038794;28;20036;-71
2022/01/31 06:39:14;;;;;;;13.63;4.00;;;4.00;99.90;;;;;;5039680;28;20029;-71
2022/01/31 06:41:40;;;;;;;11.40;3.90;;;4.00;99.90;;;;;;5037635;28;20442;-71
2022/01/31 06:44:06;;;;;;;15.05;4.38;;;4.10;99.90;;;;;;5040294;28;20029;-72
2022/01/31 06:46:34;;;;;;;13.32;3.83;;;4.10;99.90;;;;;;5038518;28;20029;-71
2022/01/31 06:49:00;;;;;;;11.60;3.90;;;4.20;99.90;;;;;;5037624;28;20092;-72
2022/01/31 06:51:25;;;;;;;9.10;4.00;;;4.30;99.90;;;;;;5039284;28;20047;-72
2022/01/31 06:53:51;;;;;;;8.02;2.92;;;4.20;99.90;;;;;;5038180;28;20030;-72
2022/01/31 06:56:17;;;;;;;10.45;3.30;;;4.30;99.90;;;;;;5038764;28;20108;-72
2022/01/31 06:58:43;;;;;;;5.90;3.28;;;4.30;99.90;;;;;;5038401;28;20028;-72
2022/01/31 07:01:09;;;;;;;10.95;4.22;;;4.30;99.90;;;;;;5038412;28;20093;-72
2022/01/31 07:03:36;;;;;;;7.53;3.88;;;4.30;99.90;;;;;;5036224;28;20036;-72
2022/01/31 07:06:02;;;;;;;9.27;3.35;;;4.40;99.90;;;;;;5036682;28;20022;-72
2022/01/31 07:08:28;;;;;;;10.10;2.97;;;4.30;99.90;;;;;;5038036;28;20026;-72
2022/01/31 07:10:54;;;;;;;7.70;3.05;;;4.30;99.90;;;;;;5035809;28;20391;-72
2022/01/31 07:15:58;;;;;;;7.72;2.95;;;4.40;99.90;;;;;;5038157;28;20625;-72
2022/01/31 07:18:24;;;;;;;7.55;3.22;;;4.40;99.90;;;;;;5036240;28;20109;-71
2022/01/31 07:20:52;;;;;;;8.10;2.80;;;4.40;99.90;;;;;;5034669;28;20137;-72
2022/01/31 07:23:24;;;;;;;7.30;2.75;;;4.50;99.90;;;;;;5035107;28;20120;-71
2022/01/31 07:25:50;;;;;;;9.15;3.55;;;4.50;99.90;;;;;;5034379;28;20027;-72
2022/01/31 07:28:16;;;;;;;4.45;2.17;;;4.50;99.90;;;;;;5035878;28;20378;-72
2022/01/31 07:30:46;;;;;;;6.80;2.95;;;4.60;99.90;;;;;;5040670;28;20026;-73
2022/01/31 07:33:12;;;;;;;4.93;2.78;;;4.70;99.90;;;;;;5043271;28;20036;-72
2022/01/31 07:35:40;;;;;;;7.53;2.13;;;4.80;99.90;;;;;;5043514;28;20370;-71
2022/01/31 07:38:06;;;;;;;6.63;1.95;;;5.00;99.90;;;;;;5041971;28;20025;-72
2022/01/31 07:40:32;;;;;;;5.80;1.85;;;5.20;99.90;;;;;;5044719;28;20060;-72
2022/01/31 07:42:58;;;;;;;7.13;1.90;;;5.30;99.90;;;;;;5042546;28;20030;-72
2022/01/31 07:45:23;;;;;;;5.00;2.42;;;5.40;99.90;;;;;;5041261;28;20083;-72
2022/01/31 07:47:49;;;;;;;5.70;2.38;;;5.40;99.90;;;;;;5041317;28;20034;-73
2022/01/31 07:50:16;;;;;;;4.68;1.80;;;5.60;99.90;;;;;;5043760;28;20053;-72
2022/01/31 07:52:42;;;;;;;3.55;1.63;;;5.90;99.90;;;;;;5040430;28;20034;-72
2022/01/31 07:55:08;;;;;;;3.90;1.55;;;6.10;99.90;;;;;;5041648;28;20030;-72
2022/01/31 07:57:35;;;;;;;4.18;1.60;;;6.40;99.90;;;;;;5041339;28;20043;-72
2022/01/31 08:00:04;;;;;;;2.13;1.30;;;6.70;99.90;;;;;;5041397;28;20064;-73
2022/01/31 08:02:30;;;;;;;4.15;2.00;;;6.50;99.90;;;;;;5041310;28;20048;-73
2022/01/31 08:04:56;;;;;;;3.40;1.67;;;6.30;99.90;;;;;;5039941;28;20034;-72
2022/01/31 08:07:23;;;;;;;2.55;1.30;;;6.20;99.90;;;;;;5041476;28;20025;-73
2022/01/31 08:09:49;;;;;;;3.50;1.40;;;6.00;99.90;;;;;;5038974;28;20104;-73
2022/01/31 08:12:14;;;;;;;6.43;1.65;;;5.80;99.90;;;;;;5041050;28;20056;-72
2022/01/31 08:14:40;;;;;;;1.83;1.38;;;5.80;99.90;;;;;;5039216;28;20463;-72
2022/01/31 08:17:06;;;;;;;2.38;1.40;;;5.80;99.90;;;;;;5039571;28;20021;-72
2022/01/31 08:19:33;;;;;;;3.58;1.40;;;5.70;99.90;;;;;;5038104;28;20025;-72
2022/01/31 08:21:59;;;;;;;5.32;1.90;;;5.60;99.90;;;;;;5040237;28;20118;-74
2022/01/31 08:24:25;;;;;;;5.65;1.60;;;5.50;99.90;;;;;;5042052;28;20028;-72
2022/01/31 08:26:51;;;;;;;2.97;1.30;;;5.50;99.90;;;;;;5041112;28;20025;-71
2022/01/31 08:29:28;;;;;;;8.88;2.28;;;5.40;99.90;;;;;;5041136;28;20126;-72
2022/01/31 08:31:53;;;;;;;2.05;1.10;;;5.40;99.90;;;;;;5039906;28;20151;-72
2022/01/31 08:37:04;;;;;;;1.45;1.00;;;5.50;99.90;;;;;;5037827;28;20080;-71
2022/01/31 08:39:30;;;;;;;2.70;1.38;;;5.50;99.90;;;;;;5036958;28;20387;-72
2022/01/31 08:41:56;;;;;;;2.72;1.17;;;5.60;99.90;;;;;;5035603;28;20464;-70
2022/01/31 08:44:23;;;;;;;8.40;1.23;;;5.60;99.90;;;;;;5035430;28;20030;-71
2022/01/31 08:46:49;;;;;;;2.67;1.30;;;5.60;99.90;;;;;;5035768;28;20033;-70
2022/01/31 08:49:15;;;;;;;4.85;2.03;;;5.60;99.90;;;;;;5038290;28;20021;-71
2022/01/31 08:51:43;;;;;;;4.35;1.20;;;5.70;99.90;;;;;;5036049;28;20053;-71
2022/01/31 08:54:10;;;;;;;2.70;1.10;;;5.60;99.90;;;;;;5039558;28;20037;-71
2022/01/31 08:56:40;;;;;;;4.35;1.58;;;5.50;99.90;;;;;;5043364;28;20025;-72
2022/01/31 08:59:15;;;;;;;3.90;2.13;;;5.50;99.90;;;;;;5041768;28;20025;-71
2022/01/31 09:01:43;;;;;;;6.43;1.50;;;5.50;99.90;;;;;;5041327;28;20026;-70
2022/01/31 09:04:12;;;;;;;4.38;2.60;;;5.50;99.90;;;;;;5036235;28;20038;-64
2022/01/31 09:06:38;;;;;;;4.07;1.27;;;7.90;99.90;;;;;;5035377;28;20030;-70
2022/01/31 09:09:08;;;;;;;5.20;1.33;;;7.90;99.90;;;;;;5036393;28;20089;-70
2022/01/31 09:11:36;;;;;;;8.38;1.30;;;8.00;99.90;;;;;;5035680;28;20047;-67
2022/01/31 09:14:03;;;;;;;4.40;1.98;;;9.00;99.90;;;;;;5035730;28;20429;-70
2022/01/31 09:16:30;;;;;;;9.02;2.17;;;9.80;99.90;;;;;;5034862;28;20029;-69
2022/01/31 09:18:56;;;;;;;5.65;1.08;;;10.00;99.90;;;;;;5035586;28;20026;-68
2022/01/31 09:21:21;;;;;;;5.68;1.40;;;9.70;99.90;;;;;;5034348;28;20057;-66
2022/01/31 09:23:52;;;;;;;3.10;1.02;;;11.00;99.90;;;;;;5037017;28;20029;-67
2022/01/31 09:26:22;;;;;;;2.92;1.05;;;9.50;99.90;;;;;;5035383;28;20469;-72
2022/01/31 09:28:52;;;;;;;5.47;1.17;;;7.70;99.90;;;;;;5036812;28;20063;-72
2022/01/31 09:31:18;;;;;;;7.35;1.20;;;6.70;99.90;;;;;;5037236;28;20112;-73
2022/01/31 09:33:44;;;;;;;2.22;0.90;;;6.30;99.90;;;;;;5035581;28;20476;-72
2022/01/31 09:36:10;;;;;;;5.03;1.13;;;6.20;99.90;;;;;;5036921;28;20032;-73
2022/01/31 09:38:36;;;;;;;1.33;1.10;;;6.20;99.90;;;;;;5034420;28;20085;-74
2022/01/31 09:41:02;;;;;;;2.28;1.00;;;6.30;99.90;;;;;;5035810;28;20060;-73
2022/01/31 09:43:56;;;;;;;4.03;1.38;;;6.20;99.90;;;;;;5035479;28;20025;-72
2022/01/31 09:48:51;;;;;;;3.22;1.33;;;6.10;99.90;;;;;;5035162;28;20034;-72
2022/01/31 09:51:21;;;;;;;5.70;1.20;;;6.20;99.90;;;;;;5036479;28;20037;-73
2022/01/31 09:53:54;;;;;;;4.80;1.13;;;6.10;99.90;;;;;;5037330;28;20087;-72
2022/01/31 09:56:27;;;;;;;3.22;1.10;;;6.10;99.90;;;;;;5037405;28;20022;-71
2022/01/31 09:58:55;;;;;;;1.80;0.88;;;6.10;99.90;;;;;;5037210;28;20030;-73
2022/01/31 10:01:26;;;;;;;5.30;1.45;;;6.10;99.90;;;;;;5038869;28;20033;-73
2022/01/31 10:04:02;;;;;;;1.90;1.25;;;6.20;99.90;;;;;;5037829;28;20017;-73
2022/01/31 10:06:33;;;;;;;2.58;1.00;;;6.30;99.90;;;;;;5038555;28;20029;-73
2022/01/31 10:09:16;;;;;;;4.15;1.20;;;6.20;99.90;;;;;;5036273;28;20021;-72
2022/01/31 10:12:03;;;;;;;4.50;1.67;;;6.10;99.90;;;;;;5034528;28;20120;-73
2022/01/31 10:17:43;;;;;;;5.65;1.77;;;6.60;99.90;;;;;;5034391;28;20043;-73
2022/01/31 10:20:10;;;;;;;4.18;1.13;;;7.00;99.90;;;;;;5034205;28;20021;-73
2022/01/31 10:22:38;;;;;;;1.50;0.63;;;7.20;99.90;;;;;;5034491;28;20073;-72
2022/01/31 10:25:09;;;;;;;3.33;0.63;;;7.50;99.90;;;;;;5034407;28;20459;-72
2022/01/31 10:27:36;;;;;;;1.47;0.50;;;7.60;99.90;;;;;;5034655;28;20033;-73
2022/01/31 10:30:27;;;;;;;1.52;0.60;;;7.50;99.90;;;;;;5034232;28;20271;-72
2022/01/31 10:32:55;;;;;;;3.80;0.60;;;7.50;99.90;;;;;;5034076;28;20026;-72
2022/01/31 10:35:29;;;;;;;1.70;0.60;;;7.60;99.90;;;;;;5034849;28;20100;-71
2022/01/31 10:38:01;;;;;;;2.67;0.40;;;7.80;99.90;;;;;;5034945;28;20029;-73
2022/01/31 10:57:07;;;;;;;1.85;0.30;;;7.00;99.90;;;;;;5041040;28;20033;-71
2022/01/31 10:59:45;;;;;;;2.58;0.20;;;6.90;99.90;;;;;;5033501;28;20060;-72
2022/01/31 11:02:15;;;;;;;0.85;0.17;;;6.70;99.90;;;;;;5029710;28;20099;-73
2022/01/31 11:04:44;;;;;;;1.73;1.20;;;6.70;99.90;;;;;;5033179;28;20037;-72
2022/01/31 11:07:13;;;;;;;1.40;0.50;;;6.70;99.90;;;;;;5033760;28;20037;-73
2022/01/31 11:09:41;;;;;;;0.52;0.22;;;6.60;99.90;;;;;;5031328;28;20176;-70
2022/01/31 11:12:13;;;;;;;1.20;0.40;;;7.90;99.90;;;;;;5014485;28;20029;-74
2022/01/31 11:14:45;;;;;;;1.02;0.20;;;10.10;99.90;;;;;;5032906;28;20038;-73
2022/01/31 11:17:13;;;;;;;2.58;0.20;;;8.70;99.90;;;;;;5031543;28;20437;-73
2022/01/31 11:19:42;;;;;;;1.00;0.20;;;7.70;99.90;;;;;;5030956;28;20125;-70
2022/01/31 11:22:10;;;;;;;2.15;0.30;;;7.20;99.90;;;;;;5029433;28;20123;-71
2022/01/31 11:24:48;;;;;;;0.28;0.10;;;7.00;99.90;;;;;;5012512;28;20069;-72
2022/01/31 11:27:24;;;;;;;2.28;0.20;;;6.70;99.90;;;;;;5036334;28;20041;-73
2022/01/31 11:29:55;;;;;;;0.70;0.30;;;6.50;99.90;;;;;;5032773;28;20025;-72
2022/01/31 11:32:22;;;;;;;0.50;0.10;;;6.40;99.90;;;;;;5032900;28;20038;-72
2022/01/31 11:34:47;;;;;;;0.65;0.10;;;6.50;99.90;;;;;;5033660;28;20513;-72
2022/01/31 11:37:16;;;;;;;1.05;0.10;;;7.00;99.90;;;;;;5029309;28;20029;-72
2022/01/31 11:39:44;;;;;;;0.60;0.10;;;6.70;99.90;;;;;;5031842;28;20056;-72
2022/01/31 11:42:10;;;;;;;0.77;0.30;;;6.50;99.90;;;;;;5034544;28;20109;-72
2022/01/31 11:44:45;;;;;;;2.63;0.22;;;6.40;99.90;;;;;;5037028;28;20021;-73
2022/01/31 11:47:12;;;;;;;1.65;0.10;;;6.20;99.90;;;;;;5037047;28;20038;-72
2022/01/31 11:49:57;;;;;;;1.42;0.20;;;6.10;99.90;;;;;;5033971;28;20029;-72
2022/01/31 11:52:24;;;;;;;1.45;0.25;;;6.00;99.90;;;;;;5032546;28;20048;-72
2022/01/31 11:55:08;;;;;;;0.82;0.20;;;6.00;99.90;;;;;;5032908;28;20099;-74
2022/01/31 11:57:37;;;;;;;3.38;0.32;;;5.90;99.90;;;;;;5031590;28;20034;-72
2022/01/31 12:00:12;;;;;;;1.20;0.22;;;5.90;99.90;;;;;;5031762;28;20041;-72
2022/01/31 12:02:51;;;;;;;0.20;0.10;;;5.90;99.90;;;;;;5032202;28;20046;-73
2022/01/31 12:05:22;;;;;;;2.63;0.40;;;6.00;99.90;;;;;;5030721;28;20403;-72
2022/01/31 12:08:03;;;;;;;0.65;0.20;;;6.00;99.90;;;;;;5032466;28;20575;-73
2022/01/31 12:10:37;;;;;;;0.50;0.10;;;6.00;99.90;;;;;;5032849;28;20483;-72
2022/01/31 12:13:21;;;;;;;0.90;0.17;;;5.90;99.90;;;;;;5032098;28;20124;-72
2022/01/31 12:16:07;;;;;;;0.70;0.20;;;5.90;99.90;;;;;;5029417;28;20479;-73
2022/01/31 12:24:10;;;;;;;0.85;0.30;;;6.00;99.90;;;;;;5039197;28;20040;-72
2022/01/31 12:26:39;;;;;;;5.57;0.32;;;6.00;99.90;;;;;;5038079;28;20026;-72
2022/01/31 12:29:10;;;;;;;2.45;0.20;;;6.10;99.90;;;;;;5036682;28;20071;-72
2022/01/31 12:31:37;;;;;;;0.95;0.10;;;6.00;99.90;;;;;;5037598;28;20033;-73
2022/01/31 12:34:17;;;;;;;0.65;0.20;;;6.00;99.90;;;;;;5035580;28;20032;-71
2022/01/31 12:36:43;;;;;;;1.17;0.17;;;6.00;99.90;;;;;;5036447;28;20112;-72
2022/01/31 12:39:31;;;;;;;4.22;0.65;;;6.20;99.90;;;;;;5035902;28;20056;-71
2022/01/31 12:42:15;;;;;;;0.00;0.00;;;6.20;99.90;;;;;;5038892;28;20075;-74
2022/01/31 12:44:42;;;;;;;3.45;0.38;;;6.20;99.90;;;;;;5035385;28;20463;-72
2022/01/31 12:47:23;;;;;;;0.50;0.10;;;6.10;99.90;;;;;;5035470;28;20076;-71
2022/01/31 12:50:21;;;;;;;1.88;0.22;;;6.10;99.90;;;;;;5036235;28;20034;-71
2022/01/31 12:52:47;;;;;;;1.98;0.38;;;6.20;99.90;;;;;;5035975;28;20082;-72
2022/01/31 12:55:14;;;;;;;2.05;0.47;;;6.30;99.90;;;;;;5033721;28;20029;-72
2022/01/31 12:57:53;;;;;;;0.73;0.20;;;6.30;99.90;;;;;;5035357;28;20029;-72
2022/01/31 13:00:41;;;;;;;0.05;0.00;;;6.30;99.90;;;;;;5036327;28;20231;-72
2022/01/31 13:03:07;;;;;;;1.05;0.10;;;6.30;99.90;;;;;;5035878;28;20029;-72
2022/01/31 13:05:35;;;;;;;2.75;0.30;;;6.20;99.90;;;;;;5035433;28;20065;-71
2022/01/31 13:08:17;;;;;;;0.25;0.10;;;6.40;99.90;;;;;;5034570;28;20033;-72
2022/01/31 13:10:42;;;;;;;1.70;0.35;;;6.40;99.90;;;;;;5034406;28;20036;-74
2022/01/31 13:13:09;;;;;;;6.50;0.30;;;6.60;99.90;;;;;;5036508;28;20038;-78
2022/01/31 13:15:35;;;;;;;1.75;0.20;;;8.00;99.90;;;;;;5039191;28;20387;-78
2022/01/31 13:18:09;;;;;;;0.35;0.10;;;8.70;99.90;;;;;;5038453;28;20530;-74
2022/01/31 13:20:37;;;;;;;0.20;0.08;;;8.60;99.90;;;;;;5033636;28;20510;-73
2022/01/31 13:23:04;;;;;;;0.20;0.00;;;7.50;99.90;;;;;;5033605;28;20041;-73
2022/01/31 13:25:30;;;;;;;0.40;0.10;;;7.00;99.90;;;;;;5035207;28;20056;-72
2022/01/31 13:27:58;;;;;;;0.63;0.10;;;6.60;99.90;;;;;;5032962;28;20479;-72
2022/01/31 13:30:26;;;;;;;0.95;0.10;;;6.40;99.90;;;;;;5033646;28;20120;-72
2022/01/31 13:32:52;;;;;;;0.75;0.20;;;6.40;99.90;;;;;;5033852;28;20025;-72